createdAt,value
2019-05-13T00:01:46.661Z,63.33
2019-05-13T00:04:16.301Z,63.52
2019-05-13T00:06:54.050Z,64.06
2019-05-13T00:09:17.607Z,63.87
2019-05-13T00:11:47.198Z,63.43
2019-05-13T00:14:16.774Z,63.31
2019-05-13T00:16:46.491Z,63.81
2019-05-13T00:19:16.249Z,63.84
2019-05-13T00:21:45.846Z,63.59
2019-05-13T00:24:18.387Z,63.71
2019-05-13T00:26:47.924Z,63.63
2019-05-13T00:29:17.498Z,63.94
2019-05-13T00:31:47.223Z,63.95
2019-05-13T00:34:16.836Z,64.01
2019-05-13T00:36:46.439Z,64.25
2019-05-13T00:39:19.121Z,64.07
2019-05-13T00:41:49.184Z,64.03
2019-05-13T00:44:18.854Z,64.17
2019-05-13T00:46:49.580Z,63.81
2019-05-13T00:49:19.143Z,64.01
2019-05-13T00:51:48.721Z,64.04
2019-05-13T00:54:18.359Z,64.36
2019-05-13T00:56:47.910Z,63.70
2019-05-13T00:59:17.448Z,64.16
2019-05-13T01:01:47.196Z,64.19
2019-05-13T01:04:17.010Z,64.25
2019-05-13T01:06:47.233Z,64.05
2019-05-13T01:09:17.322Z,64.63
2019-05-13T01:11:46.915Z,64.36
2019-05-13T01:14:16.918Z,64.49
2019-05-13T01:16:46.688Z,64.96
2019-05-13T01:19:16.467Z,64.63
2019-05-13T01:21:46.107Z,65.11
2019-05-13T01:24:15.828Z,65.34
2019-05-13T01:26:45.375Z,65.30
2019-05-13T01:29:14.980Z,65.41
2019-05-13T01:31:44.774Z,65.86
2019-05-13T01:34:14.458Z,65.31
2019-05-13T01:36:44.771Z,65.80
2019-05-13T01:39:14.761Z,65.43
2019-05-13T01:41:45.853Z,66.15
2019-05-13T01:44:15.443Z,66.21
2019-05-13T01:46:45.097Z,65.71
2019-05-13T01:49:18.697Z,65.78
2019-05-13T01:51:48.612Z,65.79
2019-05-13T01:54:20.224Z,66.64
2019-05-13T01:56:50.002Z,65.64
2019-05-13T01:59:19.709Z,66.50
2019-05-13T02:01:49.774Z,67.03
2019-05-13T02:04:19.355Z,67.17
2019-05-13T02:06:48.890Z,67.21
2019-05-13T02:09:19.268Z,66.87
2019-05-13T02:11:49.046Z,67.02
2019-05-13T02:14:18.636Z,67.16
2019-05-13T02:16:49.439Z,67.13
2019-05-13T02:19:19.564Z,66.98
2019-05-13T02:21:49.229Z,66.85
2019-05-13T02:24:20.461Z,66.51
2019-05-13T02:26:50.124Z,66.93
2019-05-13T02:29:19.962Z,66.39
2019-05-13T02:31:53.119Z,67.04
2019-05-13T02:34:23.228Z,66.75
2019-05-13T02:36:52.783Z,67.00
2019-05-13T02:39:23.352Z,66.96
2019-05-13T02:41:53.351Z,66.68
2019-05-13T02:44:23.116Z,67.46
2019-05-13T02:46:52.773Z,67.14
2019-05-13T02:49:23.378Z,67.86
2019-05-13T02:51:54.619Z,67.80
2019-05-13T02:54:26.675Z,67.19
2019-05-13T02:56:56.445Z,67.24
2019-05-13T02:59:25.956Z,67.64
2019-05-13T03:01:55.738Z,67.93
2019-05-13T03:04:25.243Z,67.86
2019-05-13T03:06:55.029Z,67.47
2019-05-13T03:09:24.645Z,67.63
2019-05-13T03:11:54.296Z,67.66
2019-05-13T03:14:24.229Z,68.40
2019-05-13T03:16:55.806Z,68.24
2019-05-13T03:19:25.450Z,68.27
2019-05-13T03:21:55.028Z,68.52
2019-05-13T03:24:24.757Z,68.08
2019-05-13T03:26:56.301Z,68.28
2019-05-13T03:29:25.972Z,68.14
2019-05-13T03:31:56.819Z,68.36
2019-05-13T03:34:27.553Z,68.04
2019-05-13T03:36:58.472Z,68.29
2019-05-13T03:39:32.992Z,68.39
2019-05-13T03:42:04.246Z,68.71
2019-05-13T03:44:34.326Z,69.20
2019-05-13T03:47:04.897Z,68.28
2019-05-13T03:49:36.410Z,68.73
2019-05-13T03:52:06.227Z,69.40
2019-05-13T03:54:36.612Z,71.78
2019-05-13T03:57:06.355Z,70.72
2019-05-13T03:59:36.407Z,69.23
2019-05-13T04:02:06.092Z,67.98
2019-05-13T04:04:35.847Z,67.58
2019-05-13T04:07:24.827Z,67.37
2019-05-13T04:10:13.927Z,67.50
2019-05-13T04:12:43.633Z,66.86
2019-05-13T04:15:13.958Z,66.78
2019-05-13T04:17:43.569Z,66.87
2019-05-13T04:20:13.810Z,67.13
2019-05-13T04:22:43.911Z,66.96
2019-05-13T04:25:13.857Z,67.68
2019-05-13T04:27:45.283Z,67.27
2019-05-13T04:30:15.515Z,66.90
2019-05-13T04:32:45.433Z,66.26
2019-05-13T04:35:16.549Z,66.39
2019-05-13T04:37:46.190Z,65.59
2019-05-13T04:40:15.872Z,65.74
2019-05-13T04:42:45.505Z,65.56
2019-05-13T04:45:16.158Z,65.26
2019-05-13T04:47:45.737Z,65.10
2019-05-13T04:50:15.655Z,65.09
2019-05-13T04:52:45.340Z,64.81
2019-05-13T04:55:15.091Z,64.72
2019-05-13T04:57:45.205Z,64.29
2019-05-13T05:00:17.145Z,64.67
2019-05-13T05:03:33.040Z,64.03
2019-05-13T05:06:07.009Z,63.88
2019-05-13T05:09:03.279Z,63.77
2019-05-13T05:11:54.028Z,62.97
2019-05-13T05:14:53.296Z,62.83
2019-05-13T05:17:53.116Z,62.37
2019-05-13T05:20:33.064Z,62.39
2019-05-13T05:23:32.528Z,61.91
2019-05-13T05:26:16.147Z,62.17
2019-05-13T05:29:23.722Z,61.98
2019-05-13T05:32:27.900Z,62.34
2019-05-13T05:35:22.892Z,61.50
2019-05-13T05:38:08.687Z,61.64
2019-05-13T05:40:39.345Z,61.45
2019-05-13T05:43:11.649Z,61.69
2019-05-13T05:45:41.601Z,61.01
2019-05-13T05:48:14.610Z,60.90
2019-05-13T05:50:46.146Z,60.70
2019-05-13T05:53:18.618Z,59.73
2019-05-13T05:55:51.785Z,59.15
2019-05-13T05:58:23.464Z,59.13
2019-05-13T06:00:56.380Z,58.00
2019-05-13T06:03:28.048Z,58.65
2019-05-13T06:05:57.847Z,58.97
2019-05-13T06:08:27.796Z,58.91
2019-05-13T06:10:57.877Z,58.72
2019-05-13T06:13:27.668Z,57.76
2019-05-13T06:15:57.402Z,58.05
2019-05-13T06:18:27.054Z,57.35
2019-05-13T06:20:56.823Z,57.75
2019-05-13T06:23:27.053Z,58.39
2019-05-13T06:25:56.710Z,57.81
2019-05-13T06:28:27.968Z,57.28
2019-05-13T06:31:02.463Z,57.08
2019-05-13T06:33:31.952Z,56.69
2019-05-13T06:36:04.576Z,56.54
2019-05-13T06:38:34.308Z,55.06
2019-05-13T06:41:08.070Z,54.99
2019-05-13T06:43:35.360Z,55.41
2019-05-13T06:46:04.969Z,55.21
2019-05-13T06:48:34.786Z,54.97
2019-05-13T06:51:04.592Z,54.55
2019-05-13T06:53:34.208Z,53.83
2019-05-13T06:56:03.964Z,52.56
2019-05-13T06:58:33.554Z,52.79
2019-05-13T07:01:04.272Z,53.11
2019-05-13T07:03:33.991Z,52.48
2019-05-13T07:06:04.469Z,52.13
2019-05-13T07:08:34.065Z,51.06
2019-05-13T07:11:17.775Z,52.31
2019-05-13T07:13:35.352Z,52.32
2019-05-13T07:16:05.032Z,51.92
2019-05-13T07:18:34.639Z,51.17
2019-05-13T07:21:04.188Z,51.01
2019-05-13T07:23:33.887Z,51.07
2019-05-13T07:26:03.442Z,50.75
2019-05-13T07:28:33.120Z,49.96
2019-05-13T07:31:03.187Z,49.42
2019-05-13T07:33:33.352Z,48.96
2019-05-13T07:36:03.900Z,48.38
2019-05-13T07:38:33.643Z,47.73
2019-05-13T07:41:05.099Z,48.40
2019-05-13T07:43:34.719Z,47.81
2019-05-13T07:46:04.634Z,47.21
2019-05-13T07:48:34.187Z,47.37
2019-05-13T07:51:04.990Z,46.30
2019-05-13T07:53:34.826Z,46.73
2019-05-13T07:56:04.548Z,46.52
2019-05-13T07:58:37.415Z,45.54
2019-05-13T08:01:05.543Z,44.28
2019-05-13T08:03:35.140Z,44.02
2019-05-13T08:06:04.690Z,44.07
2019-05-13T08:08:34.302Z,44.30
2019-05-13T08:11:03.870Z,44.43
2019-05-13T08:13:33.611Z,44.27
2019-05-13T08:16:03.439Z,43.99
2019-05-13T08:18:33.011Z,43.69
2019-05-13T08:21:02.712Z,42.66
2019-05-13T08:23:32.630Z,42.05
2019-05-13T08:26:02.511Z,41.69
2019-05-13T08:28:32.607Z,41.76
2019-05-13T08:31:02.520Z,41.15
2019-05-13T08:33:32.781Z,40.90
2019-05-13T08:36:02.521Z,41.31
2019-05-13T08:38:32.278Z,41.47
2019-05-13T08:41:02.261Z,40.99
2019-05-13T08:43:32.281Z,39.89
2019-05-13T08:46:02.921Z,39.83
2019-05-13T08:48:32.576Z,39.32
2019-05-13T08:51:03.284Z,39.36
2019-05-13T08:53:33.185Z,39.20
2019-05-13T08:56:02.958Z,38.16
2019-05-13T08:58:32.778Z,37.34
2019-05-13T09:01:02.615Z,37.68
2019-05-13T09:03:32.801Z,37.21
2019-05-13T09:06:03.135Z,36.59
2019-05-13T09:08:33.192Z,36.40
2019-05-13T09:11:03.249Z,36.09
2019-05-13T09:13:34.827Z,34.49
2019-05-13T09:16:04.664Z,34.18
2019-05-13T09:18:34.494Z,33.92
2019-05-13T09:21:04.190Z,33.83
2019-05-13T09:23:33.800Z,32.38
2019-05-13T09:26:03.582Z,33.18
2019-05-13T09:28:33.293Z,33.06
2019-05-13T09:31:03.183Z,33.23
2019-05-13T09:33:33.087Z,33.07
2019-05-13T09:36:02.962Z,32.83
2019-05-13T09:38:32.894Z,32.04
2019-05-13T09:41:02.563Z,31.33
2019-05-13T09:43:32.314Z,30.94
2019-05-13T09:46:02.595Z,30.35
2019-05-13T09:48:32.351Z,30.16
2019-05-13T09:51:02.641Z,28.44
2019-05-13T09:53:33.563Z,29.55
2019-05-13T09:56:03.243Z,28.79
2019-05-13T09:58:33.376Z,28.18
2019-05-13T10:01:03.232Z,28.16
2019-05-13T10:03:33.388Z,27.40
2019-05-13T10:06:03.417Z,27.35
2019-05-13T10:08:33.099Z,27.50
2019-05-13T10:11:02.947Z,27.07
2019-05-13T10:13:37.384Z,26.63
2019-05-13T10:16:07.081Z,26.50
2019-05-13T10:18:36.769Z,26.89
2019-05-13T10:21:06.477Z,26.25
2019-05-13T10:23:41.809Z,25.61
2019-05-13T10:26:14.382Z,25.79
2019-05-13T10:28:45.271Z,23.78
2019-05-13T10:31:15.191Z,23.60
2019-05-13T10:33:45.294Z,22.78
2019-05-13T10:36:14.959Z,22.06
2019-05-13T10:38:45.030Z,22.35
2019-05-13T10:41:14.659Z,22.54
2019-05-13T10:43:44.715Z,23.75
2019-05-13T10:46:14.983Z,23.19
2019-05-13T10:48:44.685Z,21.38
2019-05-13T10:51:14.473Z,21.86
2019-05-13T10:53:44.249Z,22.95
2019-05-13T10:56:13.927Z,23.29
2019-05-13T10:58:44.110Z,21.50
2019-05-13T11:01:13.864Z,19.88
2019-05-13T11:03:43.830Z,19.17
2019-05-13T11:06:13.691Z,18.82
2019-05-13T11:08:43.691Z,18.87
2019-05-13T11:11:13.772Z,18.41
2019-05-13T11:13:55.078Z,18.88
2019-05-13T11:16:15.820Z,18.82
2019-05-13T11:18:45.925Z,17.81
2019-05-13T11:21:17.239Z,17.81
2019-05-13T11:23:46.933Z,18.13
2019-05-13T11:26:16.828Z,18.07
2019-05-13T11:28:46.523Z,17.78
2019-05-13T11:31:16.267Z,18.04
2019-05-13T11:33:46.042Z,17.30
2019-05-13T11:36:18.983Z,17.26
2019-05-13T11:38:47.035Z,17.56
2019-05-13T11:41:16.876Z,17.31
2019-05-13T11:44:08.046Z,17.99
2019-05-13T11:46:22.479Z,18.31
2019-05-13T11:48:52.022Z,18.05
2019-05-13T11:51:24.189Z,18.08
2019-05-13T11:53:53.417Z,18.71
2019-05-13T11:56:23.932Z,18.16
2019-05-13T11:58:53.810Z,19.11
2019-05-13T12:01:23.537Z,19.10
2019-05-13T12:03:53.505Z,19.44
2019-05-13T12:06:23.702Z,19.63
2019-05-13T12:08:55.324Z,18.51
2019-05-13T12:11:25.486Z,18.56
2019-05-13T12:13:55.250Z,18.44
2019-05-13T12:16:24.911Z,18.75
2019-05-13T12:18:55.319Z,19.32
2019-05-13T12:21:25.003Z,19.91
2019-05-13T12:23:55.248Z,19.61
2019-05-13T12:26:25.212Z,19.26
2019-05-13T12:28:54.882Z,19.58
2019-05-13T12:31:24.647Z,19.17
2019-05-13T12:33:54.571Z,18.66
2019-05-13T12:36:24.366Z,19.56
2019-05-13T12:38:54.686Z,19.81
2019-05-13T12:41:24.390Z,20.25
2019-05-13T12:43:54.256Z,20.79
2019-05-13T12:46:25.035Z,21.31
2019-05-13T12:48:54.826Z,21.66
2019-05-13T12:51:25.600Z,21.70
2019-05-13T12:53:56.827Z,20.22
2019-05-13T12:56:26.709Z,20.53
2019-05-13T12:58:56.247Z,20.55
2019-05-13T13:01:26.623Z,20.08
2019-05-13T13:03:56.327Z,21.04
2019-05-13T13:06:33.325Z,21.60
2019-05-13T13:08:58.072Z,21.60
2019-05-13T13:11:32.092Z,22.16
2019-05-13T13:14:05.266Z,22.70
2019-05-13T13:16:34.695Z,22.92
2019-05-13T13:19:02.916Z,23.06
2019-05-13T13:21:36.893Z,22.68
2019-05-13T13:24:04.781Z,22.74
2019-05-13T13:26:36.242Z,22.67
2019-05-13T13:29:05.932Z,21.73
2019-05-13T13:31:35.483Z,23.14
2019-05-13T13:34:12.131Z,23.83
2019-05-13T13:36:37.996Z,23.27
2019-05-13T13:39:13.752Z,23.66
2019-05-13T13:41:43.661Z,23.66
2019-05-13T13:44:13.149Z,23.92
2019-05-13T13:46:49.065Z,23.59
2019-05-13T13:49:14.345Z,24.23
2019-05-13T13:51:44.808Z,24.64
2019-05-13T13:54:14.755Z,24.36
2019-05-13T13:56:45.069Z,24.87
2019-05-13T13:59:15.048Z,24.69
2019-05-13T14:01:44.639Z,24.98
2019-05-13T14:04:16.400Z,25.59
2019-05-13T14:09:17.103Z,26.37
2019-05-13T14:11:47.030Z,26.92
2019-05-13T14:14:17.226Z,26.51
2019-05-13T14:16:46.910Z,25.51
2019-05-13T14:19:16.656Z,24.70
2019-05-13T14:21:46.313Z,24.65
2019-05-13T14:24:15.980Z,23.45
2019-05-13T14:26:45.835Z,22.23
2019-05-13T14:29:15.569Z,22.30
2019-05-13T14:31:45.621Z,21.41
2019-05-13T14:34:18.286Z,21.35
2019-05-13T14:36:47.996Z,21.64
2019-05-13T14:39:17.724Z,21.42
2019-05-13T14:41:47.270Z,22.69
2019-05-13T14:44:17.394Z,22.63
2019-05-13T14:46:48.123Z,23.50
2019-05-13T14:49:18.017Z,23.74
2019-05-13T14:51:47.750Z,23.57
2019-05-13T14:54:17.513Z,24.20
2019-05-13T14:56:47.476Z,23.90
2019-05-13T14:59:17.145Z,24.23
2019-05-13T15:01:46.691Z,24.05
2019-05-13T15:04:16.476Z,24.14
2019-05-13T15:06:46.147Z,24.28
2019-05-13T15:09:18.621Z,24.44
2019-05-13T15:11:48.976Z,24.85
2019-05-13T15:14:18.648Z,25.01
2019-05-13T15:17:02.319Z,24.77
2019-05-13T15:19:22.182Z,25.30
2019-05-13T15:21:52.726Z,24.58
2019-05-13T15:24:22.391Z,24.64
2019-05-13T15:26:52.572Z,24.74
2019-05-13T15:29:22.553Z,24.93
2019-05-13T15:31:52.495Z,25.32
2019-05-13T15:34:24.138Z,25.63
2019-05-13T15:36:54.108Z,25.58
2019-05-13T15:39:25.615Z,25.57
2019-05-13T15:41:58.077Z,25.52
2019-05-13T15:44:28.366Z,25.34
2019-05-13T15:47:00.082Z,25.74
2019-05-13T15:49:31.708Z,25.84
2019-05-13T15:52:01.904Z,26.21
2019-05-13T15:54:32.850Z,26.42
2019-05-13T15:57:04.039Z,26.72
2019-05-13T15:59:33.947Z,26.29
2019-05-13T16:02:05.457Z,26.21
2019-05-13T16:04:49.915Z,26.46
2019-05-13T16:07:12.272Z,26.97
2019-05-13T16:09:42.020Z,27.29
2019-05-13T16:12:13.038Z,27.53
2019-05-13T16:14:42.795Z,28.09
2019-05-13T16:17:12.810Z,28.09
2019-05-13T16:19:42.770Z,28.09
2019-05-13T16:22:13.393Z,28.09
2019-05-13T16:24:43.279Z,28.15
2019-05-13T16:27:13.184Z,28.12
2019-05-13T16:29:42.999Z,28.14
2019-05-13T16:32:12.825Z,28.66
2019-05-13T16:34:43.197Z,28.86
2019-05-13T16:37:14.746Z,29.29
2019-05-13T16:39:44.540Z,30.42
2019-05-13T16:42:14.927Z,31.01
2019-05-13T16:44:47.007Z,31.74
2019-05-13T16:47:16.537Z,32.11
2019-05-13T16:49:47.198Z,32.34
2019-05-13T16:52:17.117Z,32.03
2019-05-13T16:54:46.979Z,32.50
2019-05-13T16:57:17.635Z,33.08
2019-05-13T16:59:47.324Z,32.75
2019-05-13T17:02:17.215Z,33.17
2019-05-13T17:04:46.887Z,33.46
2019-05-13T17:07:16.780Z,33.36
2019-05-13T17:09:46.515Z,33.99
2019-05-13T17:12:18.395Z,33.92
2019-05-13T17:14:52.022Z,34.01
2019-05-13T17:17:22.732Z,34.29
2019-05-13T17:19:54.009Z,35.71
2019-05-13T17:22:23.994Z,36.59
2019-05-13T17:25:14.599Z,36.63
2019-05-13T17:27:44.516Z,37.36
2019-05-13T17:30:14.726Z,38.52
2019-05-13T17:32:44.971Z,39.00
2019-05-13T17:35:14.992Z,38.92
2019-05-13T17:37:44.781Z,39.52
2019-05-13T17:40:14.824Z,39.89
2019-05-13T17:42:46.502Z,40.06
2019-05-13T17:45:16.287Z,40.31
2019-05-13T17:47:47.169Z,40.51
2019-05-13T17:50:18.178Z,40.34
2019-05-13T17:52:47.981Z,40.50
2019-05-13T17:55:18.409Z,40.71
2019-05-13T17:57:48.173Z,41.21
2019-05-13T18:00:18.367Z,41.68
2019-05-13T18:02:51.262Z,41.92
2019-05-13T18:05:22.559Z,42.55
2019-05-13T18:07:53.853Z,42.59
2019-05-13T18:10:23.985Z,42.70
2019-05-13T18:12:53.909Z,42.86
2019-05-13T18:15:23.841Z,43.49
2019-05-13T18:17:54.504Z,43.22
2019-05-13T18:20:24.172Z,43.27
2019-05-13T18:22:54.686Z,43.06
2019-05-13T18:25:24.615Z,43.16
2019-05-13T18:27:54.575Z,43.87
2019-05-13T18:30:24.580Z,43.31
2019-05-13T18:32:54.460Z,43.49
2019-05-13T18:35:24.741Z,43.59
2019-05-13T18:37:54.430Z,44.39
2019-05-13T18:40:24.444Z,44.77
2019-05-13T18:42:54.257Z,45.27
2019-05-13T18:45:24.196Z,45.06
2019-05-13T18:47:54.055Z,45.17
2019-05-13T18:50:24.019Z,45.35
2019-05-13T18:52:53.734Z,45.83
2019-05-13T18:55:24.047Z,45.74
2019-05-13T18:57:53.892Z,45.77
2019-05-13T19:00:25.368Z,45.68
2019-05-13T19:02:55.623Z,45.99
2019-05-13T19:05:25.711Z,46.06
2019-05-13T19:07:56.691Z,45.83
2019-05-13T19:10:26.867Z,45.64
2019-05-13T19:12:57.964Z,45.97
2019-05-13T19:15:27.754Z,45.89
2019-05-13T19:17:57.721Z,45.89
2019-05-13T19:20:31.215Z,45.89
2019-05-13T19:23:01.224Z,46.24
2019-05-13T19:25:31.474Z,46.47
2019-05-13T19:28:02.373Z,46.26
2019-05-13T19:30:32.577Z,46.51
2019-05-13T19:33:03.667Z,46.36
2019-05-13T19:35:35.405Z,46.30
2019-05-13T19:38:05.279Z,46.74
2019-05-13T19:40:35.980Z,46.88
2019-05-13T19:43:05.872Z,47.02
2019-05-13T19:45:35.918Z,46.99
2019-05-13T19:48:06.269Z,47.51
2019-05-13T19:50:36.387Z,47.77
2019-05-13T19:53:06.328Z,47.66
2019-05-13T19:55:36.416Z,47.84
2019-05-13T19:58:13.904Z,48.54
2019-05-13T20:00:44.184Z,48.69
2019-05-13T20:03:14.718Z,48.29
2019-05-13T20:05:45.128Z,48.56
2019-05-13T20:08:15.884Z,49.31
2019-05-13T20:10:45.978Z,49.78
2019-05-13T20:13:16.014Z,49.37
2019-05-13T20:15:48.823Z,49.33
2019-05-13T20:18:22.881Z,49.61
2019-05-13T20:20:53.111Z,49.57
2019-05-13T20:23:46.017Z,49.54
2019-05-13T20:26:21.678Z,49.89
2019-05-13T20:28:52.129Z,50.77
2019-05-13T20:31:22.013Z,50.46
2019-05-13T20:33:51.872Z,50.12
2019-05-13T20:36:23.337Z,50.06
2019-05-13T20:38:53.193Z,49.88
2019-05-13T20:41:25.083Z,49.72
2019-05-13T20:43:54.915Z,50.10
2019-05-13T20:46:24.797Z,50.65
2019-05-13T20:48:54.734Z,51.30
2019-05-13T20:51:24.656Z,51.61
2019-05-13T20:53:56.231Z,51.79
2019-05-13T20:56:27.163Z,51.26
2019-05-13T20:58:57.219Z,51.15
2019-05-13T21:01:27.244Z,51.23
2019-05-13T21:03:57.197Z,51.40
2019-05-13T21:06:27.139Z,51.61
2019-05-13T21:08:56.833Z,51.64
2019-05-13T21:11:26.820Z,51.65
2019-05-13T21:13:56.903Z,51.71
2019-05-13T21:16:26.974Z,52.12
2019-05-13T21:18:57.623Z,52.26
2019-05-13T21:21:27.762Z,52.29
2019-05-13T21:23:57.648Z,52.21
2019-05-13T21:26:27.790Z,52.58
2019-05-13T21:28:57.607Z,52.96
2019-05-13T21:31:27.451Z,52.71
2019-05-13T21:33:57.287Z,52.93
2019-05-13T21:36:27.620Z,52.80
2019-05-13T21:38:57.859Z,52.81
2019-05-13T21:41:28.260Z,52.83
2019-05-13T21:43:58.114Z,53.51
2019-05-13T21:46:28.055Z,53.37
2019-05-13T21:49:01.112Z,53.47
2019-05-13T21:51:31.854Z,53.63
2019-05-13T21:54:02.370Z,53.69
2019-05-13T21:56:32.463Z,53.71
2019-05-13T21:59:02.202Z,53.67
2019-05-13T22:01:31.993Z,53.82
2019-05-13T22:04:01.963Z,53.70
2019-05-13T22:06:32.326Z,53.94
2019-05-13T22:09:05.201Z,53.99
2019-05-13T22:11:36.151Z,54.39
2019-05-13T22:14:05.933Z,54.26
2019-05-13T22:16:35.637Z,53.97
2019-05-13T22:19:05.370Z,54.18
2019-05-13T22:21:34.940Z,54.08
2019-05-13T22:24:04.637Z,54.81
2019-05-13T22:26:34.373Z,55.94
2019-05-13T22:29:04.026Z,55.93
2019-05-13T22:31:33.702Z,56.37
2019-05-13T22:34:03.656Z,55.82
2019-05-13T22:36:33.523Z,56.04
2019-05-13T22:39:04.521Z,56.19
2019-05-13T22:41:34.312Z,56.46
2019-05-13T22:44:04.311Z,56.90
2019-05-13T22:46:34.087Z,56.53
2019-05-13T22:49:03.649Z,56.06
2019-05-13T22:51:33.439Z,56.08
2019-05-13T22:54:03.117Z,56.21
2019-05-13T22:56:33.339Z,56.50
2019-05-13T22:59:02.942Z,56.96
2019-05-13T23:01:32.512Z,56.95
2019-05-13T23:04:02.316Z,56.82
2019-05-13T23:06:32.227Z,56.98
2019-05-13T23:09:02.033Z,57.87
2019-05-13T23:11:31.900Z,57.72
2019-05-13T23:14:09.645Z,57.78
2019-05-13T23:16:32.949Z,57.25
2019-05-13T23:19:02.894Z,57.88
2019-05-13T23:21:32.609Z,58.07
2019-05-13T23:24:02.307Z,58.06
2019-05-13T23:26:32.068Z,58.48
2019-05-13T23:29:01.603Z,58.68
2019-05-13T23:31:31.216Z,58.71
2019-05-13T23:34:01.426Z,59.37
2019-05-13T23:36:31.631Z,59.01
2019-05-13T23:39:01.399Z,58.78
2019-05-13T23:41:31.111Z,59.10
2019-05-13T23:44:01.386Z,59.48
2019-05-13T23:46:31.555Z,59.36
2019-05-13T23:49:01.373Z,59.60
2019-05-13T23:51:32.220Z,60.10
2019-05-13T23:54:02.333Z,60.25
2019-05-13T23:56:32.058Z,59.89
2019-05-13T23:59:01.648Z,60.06
